Time;durP1;ratioP1;P1;durP2;ratioP2;P2;SDS_P1;SDS_P2;PMS_P1;PMS_P2;Temp;Humidity;BMP_temperature;BMP_pressure;BME280_temperature;BME280_humidity;BME280_pressure;Samples;Min_cycle;Max_cycle;Signal;HPM_P1;HPM_P2
2022/10/20 00:01:15;;;;;;;8.20;2.77;;;4.50;99.90;;;;;;5073097;28;20270;-86
2022/10/20 00:03:40;;;;;;;6.53;2.03;;;4.50;99.90;;;;;;5073138;28;20193;-86
2022/10/20 00:06:24;;;;;;;3.57;1.97;;;4.40;99.90;;;;;;5072919;28;20721;-86
2022/10/20 00:08:51;;;;;;;3.13;2.07;;;4.50;99.90;;;;;;5071978;28;20187;-85
2022/10/20 00:11:19;;;;;;;4.83;2.17;;;4.40;99.90;;;;;;5072826;28;20203;-86
2022/10/20 00:13:47;;;;;;;2.73;2.00;;;4.40;99.90;;;;;;5073202;28;20176;-85
2022/10/20 00:16:13;;;;;;;6.70;2.57;;;4.40;99.90;;;;;;5054957;28;20194;-86
2022/10/20 00:18:39;;;;;;;5.20;2.00;;;4.40;99.90;;;;;;5072611;28;20225;-86
2022/10/20 00:21:07;;;;;;;3.23;1.90;;;4.40;99.90;;;;;;5071295;28;20261;-86
2022/10/20 00:23:34;;;;;;;9.10;2.77;;;4.30;99.90;;;;;;5072915;28;20175;-86
2022/10/20 00:26:01;;;;;;;2.23;1.73;;;4.30;99.90;;;;;;5071430;28;20183;-86
2022/10/20 00:28:27;;;;;;;8.47;2.43;;;;;;;;;;5072902;28;20270;-85
2022/10/20 00:30:56;;;;;;;2.97;2.03;;;4.30;99.90;;;;;;5071478;28;20277;-85
2022/10/20 00:33:23;;;;;;;2.00;1.70;;;4.20;99.90;;;;;;5054765;28;20183;-85
2022/10/20 00:35:49;;;;;;;2.00;1.80;;;;;;;;;;5072695;28;20213;-85
2022/10/20 00:38:15;;;;;;;2.00;1.50;;;;;;;;;;5072037;28;20289;-85
2022/10/20 00:40:41;;;;;;;4.80;2.17;;;;;;;;;;5075100;28;20632;-86
2022/10/20 00:43:15;;;;;;;3.63;1.77;;;4.10;99.90;;;;;;5076422;28;20266;-85
2022/10/20 00:45:43;;;;;;;2.47;1.87;;;4.20;99.90;;;;;;5075178;28;20171;-86
2022/10/20 00:48:19;;;;;;;7.27;3.03;;;4.10;99.90;;;;;;5076138;28;20689;-86
2022/10/20 00:50:49;;;;;;;3.77;2.77;;;4.10;99.90;;;;;;5076312;28;20201;-85
2022/10/20 00:53:17;;;;;;;3.77;2.10;;;4.10;99.90;;;;;;5075696;28;20175;-85
2022/10/20 00:55:46;;;;;;;2.90;2.17;;;4.00;99.90;;;;;;5074753;28;20287;-85
2022/10/20 00:58:12;;;;;;;2.83;2.10;;;;;;;;;;5057737;28;20211;-86
2022/10/20 01:00:40;;;;;;;10.60;2.60;;;4.00;99.90;;;;;;5075812;28;20190;-85
2022/10/20 01:03:11;;;;;;;2.53;2.13;;;4.00;99.90;;;;;;5074519;28;20259;-85
2022/10/20 01:05:38;;;;;;;2.20;1.93;;;;;;;;;;5074661;28;20274;-85
2022/10/20 01:08:04;;;;;;;6.00;2.73;;;;;;;;;;5074308;28;20283;-87
2022/10/20 01:10:54;;;;;;;1.83;1.67;;;3.90;99.90;;;;;;5075118;28;20265;-85
2022/10/20 01:13:38;;;;;;;2.57;2.37;;;3.90;99.90;;;;;;5056266;28;20229;-86
2022/10/20 01:16:04;;;;;;;2.33;2.10;;;;;;;;;;5075393;28;20198;-88
2022/10/20 01:18:53;;;;;;;2.63;2.30;;;3.90;99.90;;;;;;5074369;28;20646;-86
2022/10/20 01:21:37;;;;;;;6.93;2.50;;;3.90;99.90;;;;;;5075166;28;20284;-86
2022/10/20 01:24:26;;;;;;;3.63;1.93;;;3.90;99.90;;;;;;5075660;28;20664;-86
2022/10/20 01:27:12;;;;;;;1.93;1.77;;;3.90;99.90;;;;;;5075761;28;20628;-85
2022/10/20 01:30:06;;;;;;;7.90;2.50;;;4.00;99.90;;;;;;5075376;28;20640;-86
2022/10/20 01:32:41;;;;;;;2.53;1.57;;;4.00;99.90;;;;;;5075642;28;20179;-86
2022/10/20 01:35:07;;;;;;;4.60;2.53;;;;;;;;;;5073943;28;20175;-88
2022/10/20 01:37:50;;;;;;;2.50;1.80;;;4.00;99.90;;;;;;5075476;28;20257;-86
2022/10/20 01:40:21;;;;;;;5.87;2.53;;;4.00;99.90;;;;;;5075037;28;20176;-86
2022/10/20 01:42:49;;;;;;;3.73;2.57;;;4.00;99.90;;;;;;5074184;28;20178;-86
2022/10/20 01:45:18;;;;;;;3.83;2.10;;;4.10;99.90;;;;;;5075002;28;20623;-86
2022/10/20 01:47:46;;;;;;;4.03;2.03;;;3.90;99.90;;;;;;5073871;28;20171;-86
2022/10/20 01:50:14;;;;;;;3.73;2.67;;;4.10;99.90;;;;;;5073515;28;20175;-86
2022/10/20 01:52:40;;;;;;;5.10;2.57;;;;;;;;;;5072594;28;20182;-86
2022/10/20 01:55:12;;;;;;;3.60;2.40;;;3.60;99.90;;;;;;5059951;28;20269;-86
2022/10/20 01:58:00;;;;;;;4.57;2.53;;;4.00;99.90;;;;;;5077024;28;20220;-85
2022/10/20 02:00:26;;;;;;;3.10;2.50;;;;;;;;;;5076781;28;20611;-86
2022/10/20 02:03:11;;;;;;;4.03;2.00;;;4.00;99.90;;;;;;5060437;28;20633;-86
2022/10/20 02:06:09;;;;;;;3.40;2.60;;;4.00;99.90;;;;;;5076789;28;20210;-85
2022/10/20 02:08:44;;;;;;;4.60;2.70;;;4.00;99.90;;;;;;5094948;28;20169;-85
2022/10/20 02:11:18;;;;;;;4.57;2.67;;;4.10;99.90;;;;;;5076868;28;20185;-85
2022/10/20 02:13:44;;;;;;;7.70;2.67;;;;;;;;;;5076867;28;20615;-85
2022/10/20 02:16:16;;;;;;;4.80;3.23;;;4.40;99.90;;;;;;5076624;28;20181;-85
2022/10/20 02:18:45;;;;;;;2.33;2.13;;;4.00;99.90;;;;;;5076516;28;20666;-85
2022/10/20 02:21:11;;;;;;;2.53;2.33;;;;;;;;;;5076581;28;20178;-86
2022/10/20 02:23:39;;;;;;;4.37;3.10;;;4.00;99.90;;;;;;5076406;28;20182;-86
2022/10/20 02:26:11;;;;;;;4.00;2.53;;;3.80;99.90;;;;;;5094347;28;20171;-85
2022/10/20 02:28:41;;;;;;;2.57;2.20;;;3.90;99.90;;;;;;5094648;28;20608;-85
2022/10/20 02:31:08;;;;;;;4.77;3.10;;;;;;;;;;5094490;28;20300;-85
2022/10/20 02:33:34;;;;;;;2.80;2.27;;;;;;;;;;5076323;28;20182;-85
2022/10/20 02:36:03;;;;;;;11.57;2.43;;;;;;;;;;5094271;28;20206;-85
2022/10/20 02:38:29;;;;;;;7.53;2.30;;;;;;;;;;5076456;28;20209;-86
2022/10/20 02:40:55;;;;;;;2.87;2.30;;;;;;;;;;5095049;28;20188;-86
2022/10/20 02:43:21;;;;;;;3.53;2.60;;;;;;;;;;5076350;28;20186;-85
2022/10/20 02:45:47;;;;;;;2.67;2.17;;;;;;;;;;5076336;28;20179;-85
2022/10/20 02:48:13;;;;;;;2.60;2.40;;;;;;;;;;5076372;28;20572;-85
2022/10/20 02:50:39;;;;;;;4.13;2.90;;;;;;;;;;5094231;28;20618;-85
2022/10/20 02:53:06;;;;;;;3.53;2.30;;;;;;;;;;5094066;28;20181;-85
2022/10/20 02:55:32;;;;;;;11.90;3.10;;;;;;;;;;5075560;28;20580;-86
2022/10/20 02:57:58;;;;;;;8.07;2.90;;;;;;;;;;5093916;28;20259;-86
2022/10/20 03:00:28;;;;;;;5.67;3.37;;;;;;;;;;5076141;28;20187;-85
2022/10/20 03:02:55;;;;;;;4.63;2.27;;;;;;;;;;5075623;28;20213;-85
2022/10/20 03:05:21;;;;;;;4.40;2.03;;;;;;;;;;5075609;28;20208;-85
2022/10/20 03:07:47;;;;;;;2.67;2.13;;;;;;;;;;5059516;28;20197;-84
2022/10/20 03:10:13;;;;;;;3.80;2.77;;;;;;;;;;5094110;28;20171;-85
2022/10/20 03:12:39;;;;;;;2.23;1.73;;;;;;;;;;5075614;28;20183;-84
2022/10/20 03:15:05;;;;;;;6.00;3.07;;;4.30;99.90;;;;;;5088692;28;20281;-83
2022/10/20 03:17:30;;;;;;;3.73;2.53;;;4.00;99.90;;;;;;5112755;28;20166;-84
2022/10/20 03:19:56;;;;;;;5.10;2.83;;;4.40;99.90;;;;;;5094790;28;20193;-85
2022/10/20 03:22:22;;;;;;;4.73;3.83;;;;;;;;;;5093389;28;20245;-89
2022/10/20 03:24:48;;;;;;;3.17;2.23;;;;;;;;;;5082884;28;20187;-85
2022/10/20 03:27:14;;;;;;;4.97;2.97;;;;;;;;;;5076094;28;20547;-85
2022/10/20 03:29:40;;;;;;;4.43;2.40;;;;;;;;;;5059118;28;20196;-85
2022/10/20 03:32:06;;;;;;;2.83;1.73;;;;;;;;;;5075450;28;20179;-84
2022/10/20 03:34:32;;;;;;;4.97;3.23;;;;;;;;;;5075740;28;20234;-85
2022/10/20 03:36:58;;;;;;;8.37;2.67;;;;;;;;;;5093684;28;20234;-86
2022/10/20 03:39:24;;;;;;;3.57;2.20;;;;;;;;;;5075688;28;20233;-86
2022/10/20 03:41:50;;;;;;;2.53;2.00;;;;;;;;;;5093290;28;20658;-86
2022/10/20 03:44:16;;;;;;;5.10;2.17;;;;;;;;;;5093885;28;20175;-86
2022/10/20 03:46:42;;;;;;;3.83;2.90;;;;;;;;;;5093714;28;20185;-86
2022/10/20 03:49:08;;;;;;;1.70;1.60;;;;;;;;;;5075035;28;20197;-87
2022/10/20 03:51:34;;;;;;;5.20;3.07;;;3.80;99.90;;;;;;5067699;28;20193;-87
2022/10/20 03:53:59;;;;;;;5.40;2.80;;;3.70;99.90;;;;;;5055372;28;20586;-86
2022/10/20 03:56:25;;;;;;;4.77;2.60;;;3.70;99.90;;;;;;5059046;28;20260;-85
2022/10/20 03:58:51;;;;;;;5.20;3.10;;;3.70;99.90;;;;;;5075501;28;20206;-87
2022/10/20 04:01:19;;;;;;;3.37;2.33;;;3.90;99.90;;;;;;5075691;28;20193;-87
2022/10/20 04:03:45;;;;;;;9.13;3.30;;;;;;;;;;5075638;28;20205;-87
2022/10/20 04:06:14;;;;;;;7.63;3.47;;;3.70;99.90;;;;;;5075494;28;20181;-85
2022/10/20 04:08:40;;;;;;;7.20;3.73;;;3.60;99.90;;;;;;5093149;28;20709;-85
2022/10/20 04:11:06;;;;;;;5.63;3.30;;;;;;;;;;5075357;28;20265;-86
2022/10/20 04:13:32;;;;;;;4.50;3.20;;;3.70;99.90;;;;;;5075715;28;20284;-86
2022/10/20 04:15:58;;;;;;;4.47;2.67;;;3.70;99.90;;;;;;5087849;28;20209;-86
2022/10/20 04:18:24;;;;;;;5.00;2.47;;;;;;;;;;5091195;28;20214;-86
2022/10/20 04:20:50;;;;;;;6.93;2.87;;;3.60;99.90;;;;;;5074850;28;20194;-86
2022/10/20 04:23:16;;;;;;;4.70;3.63;;;3.60;99.90;;;;;;5097916;28;20194;-87
2022/10/20 04:25:46;;;;;;;4.10;2.97;;;3.60;99.90;;;;;;5103613;27;20169;-86
2022/10/20 04:28:13;;;;;;;4.90;2.63;;;3.70;99.90;;;;;;5121526;27;20151;-88
2022/10/20 04:30:39;;;;;;;5.07;3.20;;;3.60;99.90;;;;;;5103998;28;20189;-87
2022/10/20 04:33:05;;;;;;;5.37;3.50;;;3.60;99.90;;;;;;5103798;27;20162;-87
2022/10/20 04:35:30;;;;;;;3.00;2.67;;;3.60;99.90;;;;;;5101779;28;20273;-94
2022/10/20 04:37:56;;;;;;;9.67;1.77;;;3.50;99.90;;;;;;5095462;28;20201;-87
2022/10/20 04:40:23;;;;;;;5.27;2.87;;;3.60;99.90;;;;;;5094821;27;20174;-91
2022/10/20 04:42:48;;;;;;;3.93;2.93;;;3.60;99.90;;;;;;5119573;27;20166;-91
2022/10/20 04:45:14;;;;;;;7.23;3.17;;;3.60;99.90;;;;;;5102166;28;20180;-88
2022/10/20 04:47:40;;;;;;;5.27;3.57;;;;;;;;;;5102369;28;20245;-91
2022/10/20 04:50:06;;;;;;;2.20;1.83;;;;;;;;;;5065510;28;20194;-88
2022/10/20 04:52:32;;;;;;;5.77;2.17;;;;;;;;;;5096652;28;20268;-90
2022/10/20 04:54:58;;;;;;;3.67;3.10;;;;;;;;;;5096092;28;20209;-86
2022/10/20 04:57:24;;;;;;;3.07;2.10;;;;;;;;;;5096133;28;20162;-89
2022/10/20 04:59:50;;;;;;;2.77;2.40;;;;;;;;;;5078048;28;20182;-88
2022/10/20 05:02:16;;;;;;;6.80;2.77;;;3.60;99.90;;;;;;5077978;28;20183;-88
2022/10/20 05:04:42;;;;;;;5.40;2.50;;;3.60;99.90;;;;;;5078165;28;20660;-88
2022/10/20 05:07:08;;;;;;;3.67;2.33;;;3.60;99.90;;;;;;5078700;28;20269;-88
2022/10/20 05:09:33;;;;;;;4.30;2.63;;;3.60;99.90;;;;;;5061221;28;20187;-88
2022/10/20 05:11:59;;;;;;;5.73;3.00;;;3.60;99.90;;;;;;5078146;28;20185;-87
2022/10/20 05:14:25;;;;;;;5.87;2.77;;;3.60;99.90;;;;;;5061506;28;20536;-88
2022/10/20 05:16:51;;;;;;;7.27;2.83;;;;;;;;;;5096706;28;20178;-88
2022/10/20 05:19:17;;;;;;;6.80;2.87;;;3.60;99.90;;;;;;5078387;28;20238;-90
2022/10/20 05:21:43;;;;;;;4.73;2.90;;;3.70;99.90;;;;;;5078264;28;20210;-88
2022/10/20 05:24:15;;;;;;;4.57;3.03;;;3.60;99.90;;;;;;5066848;27;20220;-87
2022/10/20 05:26:40;;;;;;;7.13;3.37;;;3.60;99.90;;;;;;5120067;27;20161;-93
2022/10/20 05:29:08;;;;;;;9.30;3.70;;;3.60;99.90;;;;;;5065444;28;20197;-89
2022/10/20 05:31:39;;;;;;;7.53;3.37;;;3.50;99.90;;;;;;5078088;28;20653;-86
2022/10/20 05:34:05;;;;;;;5.50;3.43;;;3.60;99.90;;;;;;5095883;28;20174;-87
2022/10/20 05:36:30;;;;;;;3.80;3.20;;;3.60;99.90;;;;;;5078130;28;20190;-88
2022/10/20 05:38:56;;;;;;;8.03;3.07;;;3.60;99.90;;;;;;5077780;28;20259;-89
2022/10/20 05:41:25;;;;;;;9.00;3.60;;;3.50;99.90;;;;;;5061036;28;20614;-88
2022/10/20 05:43:56;;;;;;;4.97;3.00;;;3.50;99.90;;;;;;5077319;28;20182;-89
2022/10/20 05:46:23;;;;;;;2.80;2.27;;;3.50;99.90;;;;;;5078060;28;20177;-89
2022/10/20 05:48:53;;;;;;;6.17;3.50;;;3.60;99.90;;;;;;5077965;28;20189;-89
2022/10/20 05:51:21;;;;;;;5.40;3.93;;;3.50;99.90;;;;;;5096076;28;20231;-88
2022/10/20 05:53:47;;;;;;;3.93;2.00;;;;;;;;;;5094925;28;20186;-89
2022/10/20 05:56:15;;;;;;;6.63;3.07;;;;;;;;;;5077317;28;20271;-88
2022/10/20 05:58:42;;;;;;;8.07;2.87;;;3.60;99.90;;;;;;5095722;28;20231;-90
2022/10/20 06:01:08;;;;;;;5.83;3.03;;;3.60;99.90;;;;;;5095478;28;20210;-87
2022/10/20 06:03:34;;;;;;;10.30;3.83;;;3.60;99.90;;;;;;5095333;28;20333;-88
2022/10/20 06:06:00;;;;;;;4.43;1.93;;;3.70;99.90;;;;;;5095126;28;20712;-87
2022/10/20 06:08:33;;;;;;;6.00;3.10;;;3.70;99.90;;;;;;5077294;28;20215;-88
2022/10/20 06:11:07;;;;;;;8.27;3.33;;;3.70;99.90;;;;;;5076628;28;20181;-87
2022/10/20 06:13:33;;;;;;;7.17;3.60;;;3.60;99.90;;;;;;5095321;28;20538;-88
2022/10/20 06:16:04;;;;;;;9.27;3.93;;;3.70;99.90;;;;;;5059988;28;20186;-88
2022/10/20 06:18:31;;;;;;;7.40;3.47;;;3.70;99.90;;;;;;5076747;28;20206;-88
2022/10/20 06:21:09;;;;;;;15.23;4.13;;;3.70;99.90;;;;;;5078384;28;20214;-87
2022/10/20 06:23:35;;;;;;;10.13;3.23;;;3.70;99.90;;;;;;5099946;28;20253;-87
2022/10/20 06:26:06;;;;;;;7.80;3.57;;;3.70;99.90;;;;;;5064050;28;20604;-88
2022/10/20 06:28:33;;;;;;;4.77;3.00;;;3.70;99.90;;;;;;5098906;28;20166;-89
2022/10/20 06:30:59;;;;;;;6.10;3.10;;;3.70;99.90;;;;;;5060568;28;20321;-88
2022/10/20 06:33:29;;;;;;;7.03;2.87;;;3.70;99.90;;;;;;5059805;28;20179;-88
2022/10/20 06:36:00;;;;;;;11.17;3.27;;;3.60;99.90;;;;;;5094708;28;20215;-89
2022/10/20 06:38:26;;;;;;;9.73;3.27;;;;;;;;;;5094306;28;20195;-88
2022/10/20 06:40:52;;;;;;;7.33;4.63;;;3.70;99.90;;;;;;5094335;28;20236;-88
2022/10/20 06:43:17;;;;;;;2.83;2.27;;;3.70;99.90;;;;;;5076387;28;20642;-87
2022/10/20 06:45:43;;;;;;;3.07;2.67;;;3.70;99.90;;;;;;5043334;28;20182;-88
2022/10/20 06:48:08;;;;;;;7.30;3.13;;;3.80;99.90;;;;;;5076306;28;20182;-88
2022/10/20 06:50:34;;;;;;;9.73;3.27;;;3.80;99.90;;;;;;5044222;28;20181;-87
2022/10/20 06:53:00;;;;;;;5.23;2.90;;;3.50;99.90;;;;;;5095219;28;20174;-88
2022/10/20 06:55:26;;;;;;;4.60;2.73;;;3.70;99.90;;;;;;5060918;28;20233;-88
2022/10/20 06:57:51;;;;;;;3.27;2.33;;;3.60;99.90;;;;;;5060298;28;20213;-88
2022/10/20 07:00:17;;;;;;;7.57;3.03;;;3.70;99.90;;;;;;5094360;28;20657;-88
2022/10/20 07:02:42;;;;;;;6.47;2.53;;;3.70;99.90;;;;;;5076360;28;20196;-88
2022/10/20 07:05:08;;;;;;;5.03;3.10;;;;;;;;;;5076014;28;20660;-88
2022/10/20 07:07:34;;;;;;;3.43;2.37;;;3.90;99.90;;;;;;5076221;28;20690;-88
2022/10/20 07:10:00;;;;;;;4.03;2.50;;;;;;;;;;5059581;28;20181;-87
2022/10/20 07:12:26;;;;;;;2.30;2.10;;;3.90;99.90;;;;;;5076549;28;20623;-88
2022/10/20 07:14:52;;;;;;;3.37;2.13;;;;;;;;;;5094689;28;20205;-90
2022/10/20 07:17:18;;;;;;;5.30;3.13;;;;;;;;;;5076058;28;20182;-88
2022/10/20 07:19:44;;;;;;;3.10;2.00;;;;;;;;;;5075855;28;20216;-87
2022/10/20 07:22:10;;;;;;;4.43;2.43;;;;;;;;;;5076058;28;20182;-88
2022/10/20 07:24:35;;;;;;;4.60;2.43;;;3.90;99.90;;;;;;5094461;28;20250;-87
2022/10/20 07:27:01;;;;;;;4.47;3.40;;;3.80;99.90;;;;;;5059059;28;20686;-88
2022/10/20 07:29:27;;;;;;;5.17;2.87;;;3.80;99.90;;;;;;5076068;28;20189;-88
2022/10/20 07:31:52;;;;;;;4.47;2.27;;;3.80;99.90;;;;;;5075724;28;20185;-87
2022/10/20 07:34:21;;;;;;;2.93;1.90;;;4.00;99.90;;;;;;5042268;28;20273;-86
2022/10/20 07:36:48;;;;;;;5.57;2.53;;;3.70;99.90;;;;;;5076807;28;20258;-87
2022/10/20 07:39:15;;;;;;;2.63;2.33;;;;;;;;;;5042798;28;20213;-87
2022/10/20 07:41:44;;;;;;;4.27;2.63;;;3.70;99.90;;;;;;5094889;28;20188;-88
2022/10/20 07:44:10;;;;;;;6.73;2.83;;;4.10;99.90;;;;;;5099785;28;20171;-84
2022/10/20 07:46:35;;;;;;;4.40;3.47;;;3.80;99.90;;;;;;5094101;28;20529;-86
2022/10/20 07:49:02;;;;;;;3.43;3.07;;;;;;;;;;5059474;28;20186;-89
2022/10/20 07:51:30;;;;;;;3.57;2.30;;;3.90;99.90;;;;;;5104578;27;20182;-89
2022/10/20 07:54:07;;;;;;;3.37;2.60;;;4.00;99.90;;;;;;5114779;27;20192;-87
2022/10/20 07:56:43;;;;;;;5.23;2.93;;;4.00;99.90;;;;;;5080005;28;20282;-86
2022/10/20 07:59:10;;;;;;;5.20;3.30;;;4.10;99.90;;;;;;5080086;28;20296;-88
2022/10/20 08:01:35;;;;;;;4.73;2.87;;;4.10;99.90;;;;;;5079526;28;20692;-87
2022/10/20 08:04:04;;;;;;;5.10;2.77;;;4.20;99.90;;;;;;5063063;28;20220;-88
2022/10/20 08:06:30;;;;;;;6.30;3.83;;;;;;;;;;5097540;28;20181;-86
2022/10/20 08:08:56;;;;;;;3.00;2.23;;;4.20;99.90;;;;;;5079618;28;20182;-86
2022/10/20 08:11:22;;;;;;;6.33;3.50;;;4.20;99.90;;;;;;5097547;28;20630;-88
2022/10/20 08:13:47;;;;;;;6.20;3.30;;;4.30;99.90;;;;;;5079112;28;20178;-84
2022/10/20 08:16:14;;;;;;;4.00;3.07;;;4.30;99.90;;;;;;5062678;28;20174;-87
2022/10/20 08:18:43;;;;;;;7.00;4.17;;;4.40;99.90;;;;;;5097493;28;20238;-88
2022/10/20 08:21:14;;;;;;;6.10;2.87;;;4.50;99.90;;;;;;5079260;28;20212;-87
2022/10/20 08:23:42;;;;;;;4.20;2.93;;;4.50;99.90;;;;;;5097411;28;20178;-87
2022/10/20 08:26:09;;;;;;;5.60;2.90;;;4.60;99.90;;;;;;5097439;28;20229;-88
2022/10/20 08:28:35;;;;;;;4.70;2.63;;;4.60;99.90;;;;;;5046985;28;20186;-88
2022/10/20 08:31:06;;;;;;;5.87;3.47;;;4.60;99.90;;;;;;5079297;28;20247;-88
2022/10/20 08:33:32;;;;;;;4.63;3.33;;;;;;;;;;5079117;28;20182;-88
2022/10/20 08:36:09;;;;;;;3.43;2.73;;;4.80;99.90;;;;;;5097377;28;20170;-87
2022/10/20 08:38:36;;;;;;;4.07;2.77;;;4.90;99.90;;;;;;5097728;28;20273;-88
2022/10/20 08:41:18;;;;;;;9.57;3.77;;;5.10;99.90;;;;;;5081270;28;20183;-89
2022/10/20 08:43:46;;;;;;;8.53;3.47;;;5.10;99.90;;;;;;5078861;28;20184;-88
2022/10/20 08:46:16;;;;;;;6.07;3.00;;;5.30;99.90;;;;;;5096809;28;20630;-89
2022/10/20 08:48:44;;;;;;;5.40;3.37;;;5.10;99.90;;;;;;5097615;28;20189;-89
2022/10/20 08:51:22;;;;;;;8.37;2.90;;;5.10;99.90;;;;;;5097059;28;20173;-90
2022/10/20 08:57:20;;;;;;;3.00;1.87;;;5.10;99.90;;;;;;5093368;28;20283;-90
2022/10/20 08:59:49;;;;;;;6.50;3.87;;;5.20;99.90;;;;;;5078659;28;20199;-89
2022/10/20 09:02:16;;;;;;;3.43;2.20;;;5.40;99.90;;;;;;5062648;28;20217;-90
2022/10/20 09:04:48;;;;;;;6.40;2.80;;;5.30;99.90;;;;;;5062791;28;20239;-88
2022/10/20 09:07:31;;;;;;;6.53;3.67;;;5.40;99.90;;;;;;5088622;28;20175;-88
2022/10/20 09:10:19;;;;;;;3.43;3.03;;;5.70;99.90;;;;;;5089238;28;20651;-89
2022/10/20 09:12:47;;;;;;;5.40;2.77;;;5.50;99.90;;;;;;5062457;28;20186;-90
2022/10/20 09:15:15;;;;;;;2.60;2.20;;;5.50;99.90;;;;;;5078389;28;20509;-91
2022/10/20 09:17:49;;;;;;;3.27;2.47;;;5.60;99.90;;;;;;5078613;28;20178;-91
2022/10/20 09:20:21;;;;;;;3.03;2.30;;;5.70;99.90;;;;;;5077990;28;20177;-90
2022/10/20 09:22:47;;;;;;;3.20;2.40;;;5.90;99.90;;;;;;5078057;28;20175;-90
2022/10/20 09:25:21;;;;;;;6.37;3.03;;;4.20;99.90;;;;;;5080411;28;20174;-90
2022/10/20 09:27:47;;;;;;;5.73;3.67;;;6.20;99.90;;;;;;5096871;28;20186;-92
2022/10/20 09:30:28;;;;;;;3.97;3.17;;;6.30;99.90;;;;;;5078248;28;20203;-92
2022/10/20 09:32:53;;;;;;;7.20;3.27;;;6.30;99.90;;;;;;5096872;28;20246;-92
2022/10/20 09:35:34;;;;;;;4.67;2.00;;;6.50;99.90;;;;;;5096420;28;20213;-91
2022/10/20 09:38:09;;;;;;;2.17;1.97;;;6.50;99.90;;;;;;5078135;28;20198;-91
2022/10/20 09:40:36;;;;;;;3.40;1.63;;;6.70;99.90;;;;;;5078485;28;20205;-90
2022/10/20 09:43:14;;;;;;;3.67;1.73;;;6.80;99.90;;;;;;5061880;28;20178;-92
2022/10/20 09:45:51;;;;;;;3.70;2.40;;;7.20;99.90;;;;;;5095866;28;20682;-91
2022/10/20 09:48:39;;;;;;;4.00;2.17;;;7.30;99.90;;;;;;5077645;28;20311;-91
2022/10/20 09:51:11;;;;;;;2.23;1.50;;;7.30;99.90;;;;;;5096127;28;20539;-92
2022/10/20 09:53:53;;;;;;;3.20;2.30;;;7.40;99.90;;;;;;5078466;28;20170;-89
2022/10/20 09:56:27;;;;;;;2.17;1.83;;;7.70;99.90;;;;;;5074593;28;20235;-91
2022/10/20 09:58:54;;;;;;;4.40;2.33;;;7.70;99.90;;;;;;5074781;28;20206;-93
2022/10/20 10:01:21;;;;;;;1.53;1.40;;;7.80;99.90;;;;;;5058277;28;20211;-91
2022/10/20 10:03:50;;;;;;;3.77;1.90;;;7.80;99.90;;;;;;5074882;28;20184;-93
2022/10/20 10:06:37;;;;;;;2.17;1.67;;;7.80;99.90;;;;;;5074592;28;20224;-91
2022/10/20 10:09:23;;;;;;;3.00;1.70;;;8.00;99.90;;;;;;5078931;28;20600;-91
2022/10/20 10:12:12;;;;;;;1.47;1.37;;;8.00;99.90;;;;;;5083120;28;20216;-92
2022/10/20 10:14:52;;;;;;;3.83;1.93;;;8.10;99.90;;;;;;5076027;28;20179;-94
2022/10/20 10:17:37;;;;;;;1.60;1.50;;;8.20;99.90;;;;;;5075252;28;20186;-92
2022/10/20 10:20:06;;;;;;;3.67;1.67;;;8.50;99.90;;;;;;5074705;28;20704;-92
2022/10/20 10:22:32;;;;;;;2.07;1.60;;;8.70;99.90;;;;;;5074669;28;20346;-91
2022/10/20 10:25:00;;;;;;;3.23;1.90;;;9.00;99.90;;;;;;5057761;28;20242;-91
2022/10/20 10:27:30;;;;;;;2.27;1.67;;;9.10;99.90;;;;;;5074744;28;20662;-93
2022/10/20 10:30:33;;;;;;;3.80;2.03;;;9.30;99.90;;;;;;5077519;28;20168;-91
2022/10/20 10:32:59;;;;;;;2.03;1.63;;;9.20;99.90;;;;;;5087149;28;20254;-89
2022/10/20 10:35:28;;;;;;;3.13;2.00;;;9.20;99.90;;;;;;5083525;28;20647;-91
2022/10/20 10:37:55;;;;;;;4.33;1.90;;;9.20;99.90;;;;;;5075004;28;20210;-92
2022/10/20 10:40:33;;;;;;;2.87;1.90;;;9.20;99.90;;;;;;5076702;28;20178;-93
2022/10/20 10:42:59;;;;;;;6.93;1.50;;;9.30;99.90;;;;;;5098506;28;20206;-91
2022/10/20 10:45:43;;;;;;;2.67;1.80;;;9.30;99.90;;;;;;5098368;28;20175;-94
2022/10/20 10:48:18;;;;;;;2.30;1.53;;;9.30;99.90;;;;;;5098413;28;20183;-92
2022/10/20 10:50:52;;;;;;;1.83;1.23;;;9.20;99.90;;;;;;5098872;28;20185;-92
2022/10/20 10:53:37;;;;;;;2.67;1.43;;;9.10;99.90;;;;;;5098601;28;20175;-93
2022/10/20 10:56:38;;;;;;;1.40;1.30;;;9.20;99.90;;;;;;5104674;27;20218;-92
2022/10/20 10:59:26;;;;;;;2.70;1.43;;;9.20;99.90;;;;;;5101519;27;20200;-90
2022/10/20 11:02:17;;;;;;;2.43;1.07;;;9.20;99.90;;;;;;5101622;27;20189;-91
2022/10/20 11:05:05;;;;;;;3.97;1.60;;;9.20;99.90;;;;;;5084746;27;20186;-92
2022/10/20 11:08:00;;;;;;;4.50;1.70;;;9.20;99.90;;;;;;5101233;27;20186;-94
2022/10/20 11:11:00;;;;;;;2.83;0.93;;;9.20;99.90;;;;;;5118710;27;20158;-94
2022/10/20 11:13:47;;;;;;;1.40;1.20;;;9.10;99.90;;;;;;5083372;28;20196;-94
2022/10/20 11:16:36;;;;;;;2.17;1.10;;;9.20;99.90;;;;;;5101123;27;20183;-93
2022/10/20 11:19:20;;;;;;;2.77;1.10;;;9.30;99.90;;;;;;5111644;27;20233;-93
2022/10/20 11:21:49;;;;;;;5.00;1.00;;;9.20;99.90;;;;;;5082192;28;20154;-92
2022/10/20 11:24:20;;;;;;;1.40;1.10;;;9.20;99.90;;;;;;5082497;28;20178;-93
2022/10/20 11:26:52;;;;;;;2.20;1.23;;;9.30;99.90;;;;;;5087493;28;20175;-94
2022/10/20 11:29:28;;;;;;;1.20;1.10;;;9.20;99.90;;;;;;5082155;28;20239;-90
2022/10/20 11:32:13;;;;;;;1.87;1.40;;;9.10;99.90;;;;;;5097152;28;20170;-91
2022/10/20 11:34:57;;;;;;;1.57;1.07;;;9.10;99.90;;;;;;5100031;28;20172;-90
2022/10/20 11:37:51;;;;;;;1.97;1.70;;;9.20;99.90;;;;;;5079416;28;20174;-91
2022/10/20 11:40:44;;;;;;;3.77;1.90;;;9.30;99.90;;;;;;5079064;28;20593;-92
2022/10/20 11:43:36;;;;;;;2.93;1.40;;;9.40;99.90;;;;;;5077244;28;20186;-91
2022/10/20 11:46:16;;;;;;;1.55;1.45;;;9.50;99.90;;;;;;5094963;28;20242;-93
2022/10/20 11:48:45;;;;;;;2.70;1.10;;;9.60;99.90;;;;;;5076591;28;20641;-94
2022/10/20 11:51:29;;;;;;;2.17;1.40;;;9.80;99.90;;;;;;5076584;28;20197;-94
2022/10/20 11:54:13;;;;;;;3.43;1.40;;;9.90;99.90;;;;;;5094623;28;20170;-93
2022/10/20 11:56:57;;;;;;;1.53;1.10;;;9.60;99.90;;;;;;5079059;28;20256;-92
2022/10/20 12:00:01;;;;;;;4.72;1.27;;;9.70;99.90;;;;;;5078773;28;20206;-95
2022/10/20 12:03:05;;;;;;;2.87;1.23;;;9.60;99.90;;;;;;5099436;28;20209;-92
2022/10/20 12:06:06;;;;;;;4.00;1.00;;;9.40;99.90;;;;;;5096031;28;20167;-92
2022/10/20 12:08:46;;;;;;;1.27;0.90;;;9.60;99.90;;;;;;4976218;28;20185;-93
2022/10/20 12:11:53;;;;;;;1.27;1.17;;;9.70;99.90;;;;;;5082446;28;20186;-92
2022/10/20 12:14:35;;;;;;;2.17;1.30;;;9.90;99.90;;;;;;5075692;28;20179;-91
2022/10/20 12:17:24;;;;;;;1.73;1.10;;;10.00;99.90;;;;;;5076005;28;20185;-89
2022/10/20 12:19:50;;;;;;;1.63;1.53;;;10.10;99.90;;;;;;5094049;28;20233;-90
2022/10/20 12:22:16;;;;;;;2.33;1.57;;;10.20;99.90;;;;;;5080751;28;20178;-89
2022/10/20 12:25:03;;;;;;;1.60;0.88;;;10.40;99.90;;;;;;5117692;27;20262;-90
2022/10/20 12:27:29;;;;;;;1.27;1.10;;;10.50;99.90;;;;;;5117727;27;20169;-91
2022/10/20 12:30:23;;;;;;;7.77;2.00;;;10.70;99.90;;;;;;5118119;27;20162;-94
2022/10/20 12:32:57;;;;;;;0.77;0.77;;;10.90;99.90;;;;;;5117312;27;20170;-90
2022/10/20 12:35:23;;;;;;;3.63;2.03;;;10.60;99.90;;;;;;5080770;28;20190;-91
2022/10/20 12:38:03;;;;;;;1.48;1.10;;;10.80;99.90;;;;;;5083382;28;20213;-91
2022/10/20 12:40:42;;;;;;;1.15;0.98;;;11.10;99.10;;;;;;5066007;28;20187;-91
2022/10/20 12:43:23;;;;;;;0.98;0.95;;;11.10;99.70;;;;;;5081462;28;20170;-88
2022/10/20 12:45:49;;;;;;;2.67;1.55;;;11.30;99.90;;;;;;5108826;28;20240;-91
2022/10/20 12:48:23;;;;;;;2.15;1.42;;;11.00;99.90;;;;;;5117587;27;20254;-86
2022/10/20 12:50:50;;;;;;;11.10;3.65;;;11.50;98.60;;;;;;5098011;28;20257;-87
2022/10/20 12:53:16;;;;;;;7.82;3.33;;;11.60;99.90;;;;;;5087066;27;20206;-88
2022/10/20 12:56:00;;;;;;;6.32;2.88;;;12.00;99.90;;;;;;5119101;28;20221;-88
2022/10/20 12:58:32;;;;;;;21.30;5.43;;;12.80;96.50;;;;;;5115281;28;20194;-87
2022/10/20 13:00:57;;;;;;;2.67;2.20;;;12.70;94.90;;;;;;5106058;28;20266;-90
2022/10/20 13:03:48;;;;;;;1.25;1.10;;;13.10;93.70;;;;;;5080305;28;20599;-89
2022/10/20 13:06:22;;;;;;;7.18;1.95;;;13.50;90.50;;;;;;5098090;28;20179;-88
2022/10/20 13:09:06;;;;;;;2.35;0.80;;;14.00;87.30;;;;;;5099052;28;20173;-91
2022/10/20 13:12:13;;;;;;;1.83;0.63;;;14.90;77.30;;;;;;5097916;28;20166;-93
2022/10/20 13:15:17;;;;;;;0.88;0.88;;;15.20;74.90;;;;;;5079011;28;20185;-88
2022/10/20 13:17:56;;;;;;;0.75;0.73;;;15.70;73.30;;;;;;5078171;28;20198;-87
2022/10/20 13:20:43;;;;;;;3.17;1.38;;;16.00;73.80;;;;;;5078218;28;20634;-88
2022/10/20 13:23:13;;;;;;;1.75;0.90;;;16.40;70.90;;;;;;5081947;28;20189;-92
2022/10/20 13:25:42;;;;;;;2.70;1.52;;;16.80;69.70;;;;;;5098485;28;20170;-86
2022/10/20 13:28:19;;;;;;;6.15;1.83;;;17.00;68.20;;;;;;5101218;28;20185;-90
2022/10/20 13:30:54;;;;;;;8.32;3.00;;;17.40;63.50;;;;;;5081240;28;20178;-87
2022/10/20 13:33:27;;;;;;;5.85;2.40;;;17.80;62.30;;;;;;5096687;28;20689;-86
2022/10/20 13:39:25;;;;;;;11.88;4.65;;;17.10;64.60;;;;;;5035692;28;20250;-91
2022/10/20 13:42:17;;;;;;;2.42;1.20;;;16.90;65.30;;;;;;5021644;28;20285;-90
2022/10/20 13:45:01;;;;;;;2.35;1.30;;;16.70;66.80;;;;;;5025069;28;20268;-90
2022/10/20 13:47:45;;;;;;;2.78;1.55;;;16.40;66.10;;;;;;5023454;28;20184;-89